sensor_id;sensor_type;location;lat;lon;timestamp;P1;durP1;ratioP1;P2;durP2;ratioP2
60847;SDS011;46681;47.696;9.140;2023-11-21T00:02:24;2.17;;;1.27;;
60847;SDS011;46681;47.696;9.140;2023-11-21T00:04:52;3.07;;;1.40;;
60847;SDS011;46681;47.696;9.140;2023-11-21T00:07:20;2.73;;;1.60;;
60847;SDS011;46681;47.696;9.140;2023-11-21T00:09:47;2.80;;;1.50;;
60847;SDS011;46681;47.696;9.140;2023-11-21T00:12:14;2.10;;;1.57;;
60847;SDS011;46681;47.696;9.140;2023-11-21T00:14:42;2.83;;;1.53;;
60847;SDS011;46681;47.696;9.140;2023-11-21T00:17:11;3.03;;;1.37;;
60847;SDS011;46681;47.696;9.140;2023-11-21T00:19:37;2.63;;;1.50;;
60847;SDS011;46681;47.696;9.140;2023-11-21T00:22:04;5.13;;;2.07;;
60847;SDS011;46681;47.696;9.140;2023-11-21T00:24:31;2.17;;;1.43;;
60847;SDS011;46681;47.696;9.140;2023-11-21T00:26:58;4.63;;;1.80;;
60847;SDS011;46681;47.696;9.140;2023-11-21T00:29:25;3.77;;;1.47;;
60847;SDS011;46681;47.696;9.140;2023-11-21T00:31:51;4.83;;;1.70;;
60847;SDS011;46681;47.696;9.140;2023-11-21T00:34:22;5.63;;;1.80;;
60847;SDS011;46681;47.696;9.140;2023-11-21T00:36:48;4.17;;;1.50;;
60847;SDS011;46681;47.696;9.140;2023-11-21T00:39:14;2.63;;;1.50;;
60847;SDS011;46681;47.696;9.140;2023-11-21T00:41:42;4.93;;;1.70;;
60847;SDS011;46681;47.696;9.140;2023-11-21T00:44:11;2.73;;;1.50;;
60847;SDS011;46681;47.696;9.140;2023-11-21T00:46:38;2.73;;;1.47;;
60847;SDS011;46681;47.696;9.140;2023-11-21T00:49:05;2.97;;;1.60;;
60847;SDS011;46681;47.696;9.140;2023-11-21T00:51:31;1.90;;;1.67;;
60847;SDS011;46681;47.696;9.140;2023-11-21T00:54:00;1.60;;;1.37;;
60847;SDS011;46681;47.696;9.140;2023-11-21T00:56:27;3.13;;;1.60;;
60847;SDS011;46681;47.696;9.140;2023-11-21T00:58:54;2.70;;;1.63;;
60847;SDS011;46681;47.696;9.140;2023-11-21T01:01:21;2.40;;;1.60;;
60847;SDS011;46681;47.696;9.140;2023-11-21T01:03:50;2.77;;;1.40;;
60847;SDS011;46681;47.696;9.140;2023-11-21T01:06:17;2.73;;;1.40;;
60847;SDS011;46681;47.696;9.140;2023-11-21T01:08:44;3.43;;;1.40;;
60847;SDS011;46681;47.696;9.140;2023-11-21T01:11:11;2.60;;;1.40;;
60847;SDS011;46681;47.696;9.140;2023-11-21T01:13:41;4.03;;;1.40;;
60847;SDS011;46681;47.696;9.140;2023-11-21T01:16:12;3.57;;;1.53;;
60847;SDS011;46681;47.696;9.140;2023-11-21T01:18:39;2.73;;;1.50;;
60847;SDS011;46681;47.696;9.140;2023-11-21T01:21:07;2.03;;;1.40;;
60847;SDS011;46681;47.696;9.140;2023-11-21T01:23:37;3.67;;;1.23;;
60847;SDS011;46681;47.696;9.140;2023-11-21T01:26:04;2.67;;;1.23;;
60847;SDS011;46681;47.696;9.140;2023-11-21T01:28:31;3.30;;;1.50;;
60847;SDS011;46681;47.696;9.140;2023-11-21T01:31:01;3.73;;;1.40;;
60847;SDS011;46681;47.696;9.140;2023-11-21T01:33:28;1.37;;;1.27;;
60847;SDS011;46681;47.696;9.140;2023-11-21T01:35:54;2.27;;;1.23;;
60847;SDS011;46681;47.696;9.140;2023-11-21T01:38:21;2.57;;;1.20;;
60847;SDS011;46681;47.696;9.140;2023-11-21T01:40:48;2.60;;;1.47;;
60847;SDS011;46681;47.696;9.140;2023-11-21T01:43:18;3.60;;;1.50;;
60847;SDS011;46681;47.696;9.140;2023-11-21T01:45:46;3.83;;;1.80;;
60847;SDS011;46681;47.696;9.140;2023-11-21T01:48:13;2.80;;;1.57;;
60847;SDS011;46681;47.696;9.140;2023-11-21T01:50:39;2.87;;;1.47;;
60847;SDS011;46681;47.696;9.140;2023-11-21T01:53:04;1.33;;;1.23;;
60847;SDS011;46681;47.696;9.140;2023-11-21T01:55:33;2.33;;;1.27;;
60847;SDS011;46681;47.696;9.140;2023-11-21T01:58:01;3.20;;;1.60;;
60847;SDS011;46681;47.696;9.140;2023-11-21T02:00:28;1.93;;;1.47;;
60847;SDS011;46681;47.696;9.140;2023-11-21T02:02:57;4.43;;;1.50;;
60847;SDS011;46681;47.696;9.140;2023-11-21T02:05:27;1.77;;;1.03;;
60847;SDS011;46681;47.696;9.140;2023-11-21T02:07:54;2.70;;;1.40;;
60847;SDS011;46681;47.696;9.140;2023-11-21T02:10:22;2.97;;;1.10;;
60847;SDS011;46681;47.696;9.140;2023-11-21T02:12:49;2.30;;;1.23;;
60847;SDS011;46681;47.696;9.140;2023-11-21T02:15:15;1.33;;;1.23;;
60847;SDS011;46681;47.696;9.140;2023-11-21T02:17:47;2.73;;;1.50;;
60847;SDS011;46681;47.696;9.140;2023-11-21T02:20:25;2.67;;;1.33;;
60847;SDS011;46681;47.696;9.140;2023-11-21T02:22:52;2.83;;;1.60;;
60847;SDS011;46681;47.696;9.140;2023-11-21T02:25:20;2.67;;;1.40;;
60847;SDS011;46681;47.696;9.140;2023-11-21T02:27:47;1.43;;;1.00;;
60847;SDS011;46681;47.696;9.140;2023-11-21T02:30:12;2.80;;;1.50;;
60847;SDS011;46681;47.696;9.140;2023-11-21T02:32:44;1.60;;;1.50;;
60847;SDS011;46681;47.696;9.140;2023-11-21T02:35:12;1.43;;;1.10;;
60847;SDS011;46681;47.696;9.140;2023-11-21T02:37:39;1.13;;;1.03;;
60847;SDS011;46681;47.696;9.140;2023-11-21T02:40:06;3.07;;;1.73;;
60847;SDS011;46681;47.696;9.140;2023-11-21T02:42:39;1.37;;;1.20;;
60847;SDS011;46681;47.696;9.140;2023-11-21T02:45:07;2.77;;;1.30;;
60847;SDS011;46681;47.696;9.140;2023-11-21T02:47:39;3.70;;;1.30;;
60847;SDS011;46681;47.696;9.140;2023-11-21T02:50:06;3.03;;;1.33;;
60847;SDS011;46681;47.696;9.140;2023-11-21T02:52:33;2.77;;;1.30;;
60847;SDS011;46681;47.696;9.140;2023-11-21T02:55:00;2.33;;;1.20;;
60847;SDS011;46681;47.696;9.140;2023-11-21T02:57:30;1.97;;;1.20;;
60847;SDS011;46681;47.696;9.140;2023-11-21T02:59:57;2.77;;;1.10;;
60847;SDS011;46681;47.696;9.140;2023-11-21T03:02:23;2.30;;;1.50;;
60847;SDS011;46681;47.696;9.140;2023-11-21T03:04:51;1.67;;;1.23;;
60847;SDS011;46681;47.696;9.140;2023-11-21T03:07:18;1.57;;;1.33;;
60847;SDS011;46681;47.696;9.140;2023-11-21T03:09:45;2.50;;;1.50;;
60847;SDS011;46681;47.696;9.140;2023-11-21T03:12:12;1.77;;;1.20;;
60847;SDS011;46681;47.696;9.140;2023-11-21T03:14:39;2.57;;;1.30;;
60847;SDS011;46681;47.696;9.140;2023-11-21T03:17:05;1.37;;;1.03;;
60847;SDS011;46681;47.696;9.140;2023-11-21T03:19:31;1.67;;;1.30;;
60847;SDS011;46681;47.696;9.140;2023-11-21T03:21:58;1.83;;;1.30;;
60847;SDS011;46681;47.696;9.140;2023-11-21T03:24:24;2.30;;;1.10;;
60847;SDS011;46681;47.696;9.140;2023-11-21T03:26:52;2.07;;;1.20;;
60847;SDS011;46681;47.696;9.140;2023-11-21T03:29:19;1.47;;;1.37;;
60847;SDS011;46681;47.696;9.140;2023-11-21T03:31:45;3.13;;;1.47;;
60847;SDS011;46681;47.696;9.140;2023-11-21T03:34:24;1.20;;;1.10;;
60847;SDS011;46681;47.696;9.140;2023-11-21T03:36:52;1.87;;;1.37;;
60847;SDS011;46681;47.696;9.140;2023-11-21T03:39:19;2.57;;;1.50;;
60847;SDS011;46681;47.696;9.140;2023-11-21T03:41:45;1.33;;;0.80;;
60847;SDS011;46681;47.696;9.140;2023-11-21T03:44:11;2.00;;;1.10;;
60847;SDS011;46681;47.696;9.140;2023-11-21T03:46:36;1.17;;;1.03;;
60847;SDS011;46681;47.696;9.140;2023-11-21T03:49:02;3.70;;;0.90;;
60847;SDS011;46681;47.696;9.140;2023-11-21T03:51:27;2.20;;;1.07;;
60847;SDS011;46681;47.696;9.140;2023-11-21T03:53:53;1.20;;;1.00;;
60847;SDS011;46681;47.696;9.140;2023-11-21T03:56:19;1.87;;;1.03;;
60847;SDS011;46681;47.696;9.140;2023-11-21T03:58:44;0.80;;;0.80;;
60847;SDS011;46681;47.696;9.140;2023-11-21T04:01:10;1.60;;;1.00;;
60847;SDS011;46681;47.696;9.140;2023-11-21T04:03:36;1.67;;;1.33;;
60847;SDS011;46681;47.696;9.140;2023-11-21T04:06:01;1.20;;;1.07;;
60847;SDS011;46681;47.696;9.140;2023-11-21T04:08:26;2.70;;;1.00;;
60847;SDS011;46681;47.696;9.140;2023-11-21T04:10:52;1.27;;;1.00;;
60847;SDS011;46681;47.696;9.140;2023-11-21T04:13:17;2.07;;;1.10;;
60847;SDS011;46681;47.696;9.140;2023-11-21T04:15:43;3.07;;;1.23;;
60847;SDS011;46681;47.696;9.140;2023-11-21T04:18:11;1.27;;;0.83;;
60847;SDS011;46681;47.696;9.140;2023-11-21T04:20:40;1.17;;;0.80;;
60847;SDS011;46681;47.696;9.140;2023-11-21T04:23:06;1.10;;;0.90;;
60847;SDS011;46681;47.696;9.140;2023-11-21T04:25:31;1.00;;;1.00;;
60847;SDS011;46681;47.696;9.140;2023-11-21T04:27:56;2.07;;;0.97;;
60847;SDS011;46681;47.696;9.140;2023-11-21T04:30:22;1.43;;;1.13;;
60847;SDS011;46681;47.696;9.140;2023-11-21T04:32:47;1.13;;;0.97;;
60847;SDS011;46681;47.696;9.140;2023-11-21T04:35:13;1.33;;;1.00;;
60847;SDS011;46681;47.696;9.140;2023-11-21T04:37:38;1.50;;;1.10;;
60847;SDS011;46681;47.696;9.140;2023-11-21T04:40:09;1.13;;;0.83;;
60847;SDS011;46681;47.696;9.140;2023-11-21T04:42:38;1.17;;;1.13;;
60847;SDS011;46681;47.696;9.140;2023-11-21T04:45:07;1.10;;;0.97;;
60847;SDS011;46681;47.696;9.140;2023-11-21T04:47:35;1.53;;;0.90;;
60847;SDS011;46681;47.696;9.140;2023-11-21T04:50:02;0.70;;;0.70;;
60847;SDS011;46681;47.696;9.140;2023-11-21T04:52:28;0.70;;;0.70;;
60847;SDS011;46681;47.696;9.140;2023-11-21T04:55:00;1.50;;;0.80;;
60847;SDS011;46681;47.696;9.140;2023-11-21T04:57:26;1.60;;;0.80;;
60847;SDS011;46681;47.696;9.140;2023-11-21T04:59:53;0.83;;;0.80;;
60847;SDS011;46681;47.696;9.140;2023-11-21T05:02:22;1.60;;;0.97;;
60847;SDS011;46681;47.696;9.140;2023-11-21T05:04:54;0.97;;;0.90;;
60847;SDS011;46681;47.696;9.140;2023-11-21T05:07:23;1.73;;;1.10;;
60847;SDS011;46681;47.696;9.140;2023-11-21T05:09:49;2.87;;;1.03;;
60847;SDS011;46681;47.696;9.140;2023-11-21T05:12:14;0.80;;;0.80;;
60847;SDS011;46681;47.696;9.140;2023-11-21T05:14:47;1.20;;;0.90;;
60847;SDS011;46681;47.696;9.140;2023-11-21T05:17:13;2.30;;;0.90;;
60847;SDS011;46681;47.696;9.140;2023-11-21T05:19:38;1.70;;;1.00;;
60847;SDS011;46681;47.696;9.140;2023-11-21T05:22:04;1.57;;;1.00;;
60847;SDS011;46681;47.696;9.140;2023-11-21T05:24:29;0.73;;;0.70;;
60847;SDS011;46681;47.696;9.140;2023-11-21T05:26:55;2.47;;;0.93;;
60847;SDS011;46681;47.696;9.140;2023-11-21T05:29:20;1.40;;;0.87;;
60847;SDS011;46681;47.696;9.140;2023-11-21T05:31:46;2.30;;;1.00;;
60847;SDS011;46681;47.696;9.140;2023-11-21T05:34:11;1.83;;;0.97;;
60847;SDS011;46681;47.696;9.140;2023-11-21T05:36:39;1.97;;;0.90;;
60847;SDS011;46681;47.696;9.140;2023-11-21T05:39:04;2.43;;;1.00;;
60847;SDS011;46681;47.696;9.140;2023-11-21T05:41:30;1.63;;;1.00;;
60847;SDS011;46681;47.696;9.140;2023-11-21T05:43:55;1.93;;;0.90;;
60847;SDS011;46681;47.696;9.140;2023-11-21T05:46:21;1.07;;;0.80;;
60847;SDS011;46681;47.696;9.140;2023-11-21T05:48:51;1.07;;;0.80;;
60847;SDS011;46681;47.696;9.140;2023-11-21T05:51:22;1.33;;;1.07;;
60847;SDS011;46681;47.696;9.140;2023-11-21T05:53:49;1.23;;;1.00;;
60847;SDS011;46681;47.696;9.140;2023-11-21T05:56:23;1.67;;;0.93;;
60847;SDS011;46681;47.696;9.140;2023-11-21T05:58:49;1.33;;;0.90;;
60847;SDS011;46681;47.696;9.140;2023-11-21T06:01:16;1.40;;;0.90;;
60847;SDS011;46681;47.696;9.140;2023-11-21T06:03:44;0.90;;;0.80;;
60847;SDS011;46681;47.696;9.140;2023-11-21T06:06:11;1.77;;;0.90;;
60847;SDS011;46681;47.696;9.140;2023-11-21T06:08:39;2.17;;;1.20;;
60847;SDS011;46681;47.696;9.140;2023-11-21T06:11:04;0.80;;;0.80;;
60847;SDS011;46681;47.696;9.140;2023-11-21T06:13:33;5.40;;;1.40;;
60847;SDS011;46681;47.696;9.140;2023-11-21T06:15:59;2.23;;;1.00;;
60847;SDS011;46681;47.696;9.140;2023-11-21T06:18:25;1.40;;;0.90;;
60847;SDS011;46681;47.696;9.140;2023-11-21T06:20:51;4.03;;;1.50;;
60847;SDS011;46681;47.696;9.140;2023-11-21T06:23:18;2.53;;;1.20;;
60847;SDS011;46681;47.696;9.140;2023-11-21T06:25:45;3.23;;;1.30;;
60847;SDS011;46681;47.696;9.140;2023-11-21T06:28:14;1.77;;;0.80;;
60847;SDS011;46681;47.696;9.140;2023-11-21T06:30:42;1.70;;;1.00;;
60847;SDS011;46681;47.696;9.140;2023-11-21T06:33:22;1.00;;;1.00;;
60847;SDS011;46681;47.696;9.140;2023-11-21T06:35:50;1.60;;;0.90;;
60847;SDS011;46681;47.696;9.140;2023-11-21T06:38:16;1.50;;;1.00;;
60847;SDS011;46681;47.696;9.140;2023-11-21T06:40:41;0.87;;;0.87;;
60847;SDS011;46681;47.696;9.140;2023-11-21T06:43:07;1.73;;;0.93;;
60847;SDS011;46681;47.696;9.140;2023-11-21T06:45:35;1.27;;;0.90;;
60847;SDS011;46681;47.696;9.140;2023-11-21T06:48:11;1.30;;;0.97;;
60847;SDS011;46681;47.696;9.140;2023-11-21T06:50:53;0.93;;;0.80;;
60847;SDS011;46681;47.696;9.140;2023-11-21T06:53:26;1.50;;;0.97;;
60847;SDS011;46681;47.696;9.140;2023-11-21T06:55:51;1.40;;;1.13;;
60847;SDS011;46681;47.696;9.140;2023-11-21T06:58:17;2.00;;;0.90;;
60847;SDS011;46681;47.696;9.140;2023-11-21T07:00:45;1.47;;;0.80;;
60847;SDS011;46681;47.696;9.140;2023-11-21T07:03:17;1.97;;;1.10;;
60847;SDS011;46681;47.696;9.140;2023-11-21T07:05:43;1.30;;;0.80;;
60847;SDS011;46681;47.696;9.140;2023-11-21T07:08:11;1.07;;;1.07;;
60847;SDS011;46681;47.696;9.140;2023-11-21T07:10:37;0.83;;;0.77;;
60847;SDS011;46681;47.696;9.140;2023-11-21T07:13:19;1.03;;;0.70;;
60847;SDS011;46681;47.696;9.140;2023-11-21T07:15:44;0.77;;;0.70;;
60847;SDS011;46681;47.696;9.140;2023-11-21T07:18:13;1.00;;;0.90;;
60847;SDS011;46681;47.696;9.140;2023-11-21T07:20:42;1.03;;;0.80;;
60847;SDS011;46681;47.696;9.140;2023-11-21T07:23:12;0.80;;;0.80;;
60847;SDS011;46681;47.696;9.140;2023-11-21T07:25:38;2.27;;;1.03;;
60847;SDS011;46681;47.696;9.140;2023-11-21T07:28:04;1.97;;;0.90;;
60847;SDS011;46681;47.696;9.140;2023-11-21T07:30:31;0.80;;;0.80;;
60847;SDS011;46681;47.696;9.140;2023-11-21T07:33:00;0.90;;;0.87;;
60847;SDS011;46681;47.696;9.140;2023-11-21T07:35:26;1.80;;;0.83;;
60847;SDS011;46681;47.696;9.140;2023-11-21T07:37:54;0.83;;;0.70;;
60847;SDS011;46681;47.696;9.140;2023-11-21T07:40:20;1.40;;;0.90;;
60847;SDS011;46681;47.696;9.140;2023-11-21T07:42:56;1.27;;;0.80;;
60847;SDS011;46681;47.696;9.140;2023-11-21T07:45:24;1.00;;;1.00;;
60847;SDS011;46681;47.696;9.140;2023-11-21T07:47:49;1.90;;;0.97;;
60847;SDS011;46681;47.696;9.140;2023-11-21T07:50:15;1.00;;;0.80;;
60847;SDS011;46681;47.696;9.140;2023-11-21T07:52:46;3.03;;;1.30;;
60847;SDS011;46681;47.696;9.140;2023-11-21T07:55:11;0.77;;;0.77;;
60847;SDS011;46681;47.696;9.140;2023-11-21T07:57:41;1.63;;;1.20;;
60847;SDS011;46681;47.696;9.140;2023-11-21T08:00:07;2.53;;;1.70;;
60847;SDS011;46681;47.696;9.140;2023-11-21T08:02:33;1.00;;;0.90;;
60847;SDS011;46681;47.696;9.140;2023-11-21T08:04:58;0.90;;;0.90;;
60847;SDS011;46681;47.696;9.140;2023-11-21T08:07:26;1.10;;;1.00;;
60847;SDS011;46681;47.696;9.140;2023-11-21T08:09:51;0.93;;;0.93;;
60847;SDS011;46681;47.696;9.140;2023-11-21T08:12:19;1.20;;;1.00;;
60847;SDS011;46681;47.696;9.140;2023-11-21T08:14:45;0.87;;;0.87;;
60847;SDS011;46681;47.696;9.140;2023-11-21T08:17:11;1.13;;;1.00;;
60847;SDS011;46681;47.696;9.140;2023-11-21T08:19:38;2.70;;;1.00;;
60847;SDS011;46681;47.696;9.140;2023-11-21T08:22:09;1.23;;;1.00;;
60847;SDS011;46681;47.696;9.140;2023-11-21T08:24:44;1.73;;;1.07;;
60847;SDS011;46681;47.696;9.140;2023-11-21T08:27:17;2.07;;;1.00;;
60847;SDS011;46681;47.696;9.140;2023-11-21T08:29:47;1.47;;;1.13;;
60847;SDS011;46681;47.696;9.140;2023-11-21T08:32:13;1.30;;;1.20;;
60847;SDS011;46681;47.696;9.140;2023-11-21T08:34:43;1.47;;;0.97;;
60847;SDS011;46681;47.696;9.140;2023-11-21T08:37:08;2.30;;;1.13;;
60847;SDS011;46681;47.696;9.140;2023-11-21T08:39:48;1.00;;;0.90;;
60847;SDS011;46681;47.696;9.140;2023-11-21T08:42:16;2.13;;;1.20;;
60847;SDS011;46681;47.696;9.140;2023-11-21T08:44:44;1.93;;;1.00;;
60847;SDS011;46681;47.696;9.140;2023-11-21T08:47:09;1.30;;;1.00;;
60847;SDS011;46681;47.696;9.140;2023-11-21T08:49:35;1.27;;;0.90;;
60847;SDS011;46681;47.696;9.140;2023-11-21T08:52:01;1.77;;;1.00;;
60847;SDS011;46681;47.696;9.140;2023-11-21T08:54:30;1.00;;;0.90;;
60847;SDS011;46681;47.696;9.140;2023-11-21T08:56:57;1.33;;;1.00;;
60847;SDS011;46681;47.696;9.140;2023-11-21T08:59:24;1.50;;;1.00;;
60847;SDS011;46681;47.696;9.140;2023-11-21T09:01:56;1.17;;;0.77;;
60847;SDS011;46681;47.696;9.140;2023-11-21T09:04:22;0.80;;;0.80;;
60847;SDS011;46681;47.696;9.140;2023-11-21T09:06:52;0.90;;;0.80;;
60847;SDS011;46681;47.696;9.140;2023-11-21T09:09:20;1.93;;;0.90;;
60847;SDS011;46681;47.696;9.140;2023-11-21T09:11:51;1.27;;;1.00;;
60847;SDS011;46681;47.696;9.140;2023-11-21T09:14:18;0.93;;;0.87;;
60847;SDS011;46681;47.696;9.140;2023-11-21T09:16:43;1.50;;;1.00;;
60847;SDS011;46681;47.696;9.140;2023-11-21T09:19:21;1.00;;;1.00;;
60847;SDS011;46681;47.696;9.140;2023-11-21T09:21:47;1.13;;;0.87;;
60847;SDS011;46681;47.696;9.140;2023-11-21T09:24:19;0.90;;;0.90;;
60847;SDS011;46681;47.696;9.140;2023-11-21T09:26:47;1.20;;;1.10;;
60847;SDS011;46681;47.696;9.140;2023-11-21T09:29:13;0.80;;;0.80;;
60847;SDS011;46681;47.696;9.140;2023-11-21T09:31:39;1.20;;;0.80;;
60847;SDS011;46681;47.696;9.140;2023-11-21T09:34:07;1.03;;;0.77;;
60847;SDS011;46681;47.696;9.140;2023-11-21T09:36:45;0.90;;;0.90;;
60847;SDS011;46681;47.696;9.140;2023-11-21T09:39:13;0.93;;;0.80;;
60847;SDS011;46681;47.696;9.140;2023-11-21T09:41:50;1.47;;;0.90;;
60847;SDS011;46681;47.696;9.140;2023-11-21T09:45:05;1.37;;;1.10;;
60847;SDS011;46681;47.696;9.140;2023-11-21T09:47:17;1.43;;;1.07;;
60847;SDS011;46681;47.696;9.140;2023-11-21T09:49:45;1.73;;;0.90;;
60847;SDS011;46681;47.696;9.140;2023-11-21T09:52:22;1.60;;;0.70;;
60847;SDS011;46681;47.696;9.140;2023-11-21T09:54:55;1.07;;;0.90;;
60847;SDS011;46681;47.696;9.140;2023-11-21T09:57:22;0.80;;;0.80;;
60847;SDS011;46681;47.696;9.140;2023-11-21T09:59:53;1.40;;;0.80;;
60847;SDS011;46681;47.696;9.140;2023-11-21T10:02:19;0.80;;;0.80;;
60847;SDS011;46681;47.696;9.140;2023-11-21T10:04:50;0.90;;;0.90;;
60847;SDS011;46681;47.696;9.140;2023-11-21T10:07:16;1.00;;;0.80;;
60847;SDS011;46681;47.696;9.140;2023-11-21T10:09:53;0.73;;;0.73;;
60847;SDS011;46681;47.696;9.140;2023-11-21T10:12:35;0.83;;;0.80;;
60847;SDS011;46681;47.696;9.140;2023-11-21T10:15:02;0.70;;;0.70;;
60847;SDS011;46681;47.696;9.140;2023-11-21T10:17:38;0.77;;;0.77;;
60847;SDS011;46681;47.696;9.140;2023-11-21T10:20:06;1.33;;;1.00;;
60847;SDS011;46681;47.696;9.140;2023-11-21T10:22:38;1.63;;;0.87;;
60847;SDS011;46681;47.696;9.140;2023-11-21T10:25:18;1.53;;;1.43;;
60847;SDS011;46681;47.696;9.140;2023-11-21T10:27:56;2.00;;;0.90;;
60847;SDS011;46681;47.696;9.140;2023-11-21T10:30:31;0.80;;;0.80;;
60847;SDS011;46681;47.696;9.140;2023-11-21T10:33:05;0.60;;;0.60;;
60847;SDS011;46681;47.696;9.140;2023-11-21T10:38:18;0.83;;;0.63;;
60847;SDS011;46681;47.696;9.140;2023-11-21T10:40:48;1.93;;;0.70;;
60847;SDS011;46681;47.696;9.140;2023-11-21T10:43:17;0.70;;;0.70;;
60847;SDS011;46681;47.696;9.140;2023-11-21T10:45:51;0.70;;;0.70;;
60847;SDS011;46681;47.696;9.140;2023-11-21T10:48:17;1.23;;;0.80;;
60847;SDS011;46681;47.696;9.140;2023-11-21T10:50:45;0.90;;;0.90;;
60847;SDS011;46681;47.696;9.140;2023-11-21T10:53:15;0.83;;;0.80;;
60847;SDS011;46681;47.696;9.140;2023-11-21T10:55:44;1.10;;;1.00;;
60847;SDS011;46681;47.696;9.140;2023-11-21T10:58:13;0.77;;;0.73;;
60847;SDS011;46681;47.696;9.140;2023-11-21T11:00:46;0.60;;;0.60;;
60847;SDS011;46681;47.696;9.140;2023-11-21T11:03:12;1.33;;;0.80;;
60847;SDS011;46681;47.696;9.140;2023-11-21T11:05:43;0.50;;;0.50;;
60847;SDS011;46681;47.696;9.140;2023-11-21T11:08:14;0.70;;;0.70;;
60847;SDS011;46681;47.696;9.140;2023-11-21T11:10:45;1.30;;;0.90;;
60847;SDS011;46681;47.696;9.140;2023-11-21T11:13:25;0.80;;;0.80;;
60847;SDS011;46681;47.696;9.140;2023-11-21T11:15:57;0.70;;;0.70;;
60847;SDS011;46681;47.696;9.140;2023-11-21T11:18:31;1.13;;;1.07;;
60847;SDS011;46681;47.696;9.140;2023-11-21T11:21:01;1.00;;;1.00;;
60847;SDS011;46681;47.696;9.140;2023-11-21T11:26:45;1.10;;;0.80;;
60847;SDS011;46681;47.696;9.140;2023-11-21T11:34:57;1.07;;;0.90;;
60847;SDS011;46681;47.696;9.140;2023-11-21T11:37:46;0.77;;;0.77;;
60847;SDS011;46681;47.696;9.140;2023-11-21T11:40:16;1.00;;;1.00;;
60847;SDS011;46681;47.696;9.140;2023-11-21T11:48:24;1.00;;;0.70;;
60847;SDS011;46681;47.696;9.140;2023-11-21T11:51:13;1.30;;;0.97;;
60847;SDS011;46681;47.696;9.140;2023-11-21T11:53:41;0.80;;;0.80;;
60847;SDS011;46681;47.696;9.140;2023-11-21T11:58:49;0.60;;;0.60;;
60847;SDS011;46681;47.696;9.140;2023-11-21T12:01:19;1.87;;;0.70;;
60847;SDS011;46681;47.696;9.140;2023-11-21T12:06:53;0.60;;;0.60;;
60847;SDS011;46681;47.696;9.140;2023-11-21T12:09:41;1.07;;;0.60;;
60847;SDS011;46681;47.696;9.140;2023-11-21T12:12:25;0.70;;;0.70;;
60847;SDS011;46681;47.696;9.140;2023-11-21T12:14:51;0.93;;;0.80;;
60847;SDS011;46681;47.696;9.140;2023-11-21T12:17:17;0.90;;;0.90;;
60847;SDS011;46681;47.696;9.140;2023-11-21T12:19:52;1.07;;;0.60;;
60847;SDS011;46681;47.696;9.140;2023-11-21T12:22:22;0.63;;;0.63;;
60847;SDS011;46681;47.696;9.140;2023-11-21T12:24:53;0.50;;;0.50;;
60847;SDS011;46681;47.696;9.140;2023-11-21T12:27:20;0.97;;;0.67;;
60847;SDS011;46681;47.696;9.140;2023-11-21T12:29:48;0.70;;;0.70;;
60847;SDS011;46681;47.696;9.140;2023-11-21T12:32:15;0.83;;;0.50;;
60847;SDS011;46681;47.696;9.140;2023-11-21T12:34:53;0.77;;;0.77;;
60847;SDS011;46681;47.696;9.140;2023-11-21T12:37:19;1.37;;;0.60;;
60847;SDS011;46681;47.696;9.140;2023-11-21T12:39:51;0.70;;;0.70;;
60847;SDS011;46681;47.696;9.140;2023-11-21T12:42:21;1.57;;;0.67;;
60847;SDS011;46681;47.696;9.140;2023-11-21T12:45:22;0.60;;;0.60;;
60847;SDS011;46681;47.696;9.140;2023-11-21T12:48:01;1.03;;;0.60;;
60847;SDS011;46681;47.696;9.140;2023-11-21T12:50:42;2.30;;;0.53;;
60847;SDS011;46681;47.696;9.140;2023-11-21T12:53:14;0.50;;;0.50;;
60847;SDS011;46681;47.696;9.140;2023-11-21T12:55:43;0.63;;;0.60;;
60847;SDS011;46681;47.696;9.140;2023-11-21T12:58:20;0.70;;;0.70;;
60847;SDS011;46681;47.696;9.140;2023-11-21T13:00:59;0.80;;;0.63;;
60847;SDS011;46681;47.696;9.140;2023-11-21T13:03:24;0.47;;;0.40;;
60847;SDS011;46681;47.696;9.140;2023-11-21T13:05:51;0.40;;;0.40;;
60847;SDS011;46681;47.696;9.140;2023-11-21T13:08:22;0.60;;;0.60;;
60847;SDS011;46681;47.696;9.140;2023-11-21T13:10:52;0.40;;;0.40;;
60847;SDS011;46681;47.696;9.140;2023-11-21T13:13:19;0.63;;;0.50;;
60847;SDS011;46681;47.696;9.140;2023-11-21T13:15:52;0.57;;;0.50;;
60847;SDS011;46681;47.696;9.140;2023-11-21T13:18:24;0.67;;;0.50;;
60847;SDS011;46681;47.696;9.140;2023-11-21T13:21:07;0.50;;;0.50;;
60847;SDS011;46681;47.696;9.140;2023-11-21T13:23:41;0.63;;;0.63;;
60847;SDS011;46681;47.696;9.140;2023-11-21T13:26:07;0.57;;;0.50;;
60847;SDS011;46681;47.696;9.140;2023-11-21T13:28:35;1.70;;;0.80;;
60847;SDS011;46681;47.696;9.140;2023-11-21T13:31:08;0.43;;;0.43;;
60847;SDS011;46681;47.696;9.140;2023-11-21T13:33:33;0.70;;;0.70;;
60847;SDS011;46681;47.696;9.140;2023-11-21T13:36:06;0.60;;;0.60;;
60847;SDS011;46681;47.696;9.140;2023-11-21T13:38:31;0.50;;;0.50;;
60847;SDS011;46681;47.696;9.140;2023-11-21T13:41:02;0.60;;;0.60;;
60847;SDS011;46681;47.696;9.140;2023-11-21T13:43:34;0.60;;;0.60;;
60847;SDS011;46681;47.696;9.140;2023-11-21T13:46:04;0.77;;;0.60;;
60847;SDS011;46681;47.696;9.140;2023-11-21T13:48:30;2.23;;;0.60;;
60847;SDS011;46681;47.696;9.140;2023-11-21T13:50:56;0.70;;;0.70;;
60847;SDS011;46681;47.696;9.140;2023-11-21T13:53:30;0.80;;;0.80;;
60847;SDS011;46681;47.696;9.140;2023-11-21T13:56:00;0.77;;;0.77;;
60847;SDS011;46681;47.696;9.140;2023-11-21T13:58:25;0.70;;;0.70;;
60847;SDS011;46681;47.696;9.140;2023-11-21T14:00:53;1.03;;;0.70;;
60847;SDS011;46681;47.696;9.140;2023-11-21T14:03:24;1.70;;;0.70;;
60847;SDS011;46681;47.696;9.140;2023-11-21T14:05:53;0.80;;;0.80;;
60847;SDS011;46681;47.696;9.140;2023-11-21T14:08:28;1.27;;;0.70;;
60847;SDS011;46681;47.696;9.140;2023-11-21T14:11:07;1.40;;;0.90;;
60847;SDS011;46681;47.696;9.140;2023-11-21T14:13:42;0.70;;;0.60;;
60847;SDS011;46681;47.696;9.140;2023-11-21T14:16:08;1.20;;;0.63;;
60847;SDS011;46681;47.696;9.140;2023-11-21T14:18:44;0.80;;;0.80;;
60847;SDS011;46681;47.696;9.140;2023-11-21T14:21:10;0.83;;;0.80;;
60847;SDS011;46681;47.696;9.140;2023-11-21T14:23:36;0.60;;;0.60;;
60847;SDS011;46681;47.696;9.140;2023-11-21T14:26:10;0.60;;;0.60;;
60847;SDS011;46681;47.696;9.140;2023-11-21T14:28:40;1.07;;;0.70;;
60847;SDS011;46681;47.696;9.140;2023-11-21T14:31:26;0.60;;;0.60;;
60847;SDS011;46681;47.696;9.140;2023-11-21T14:33:56;0.50;;;0.50;;
60847;SDS011;46681;47.696;9.140;2023-11-21T14:36:31;0.50;;;0.50;;
60847;SDS011;46681;47.696;9.140;2023-11-21T14:38:58;0.47;;;0.47;;
60847;SDS011;46681;47.696;9.140;2023-11-21T14:41:31;0.70;;;0.70;;
60847;SDS011;46681;47.696;9.140;2023-11-21T14:44:04;0.70;;;0.70;;
60847;SDS011;46681;47.696;9.140;2023-11-21T14:46:38;1.27;;;0.70;;
60847;SDS011;46681;47.696;9.140;2023-11-21T14:49:03;0.60;;;0.60;;
60847;SDS011;46681;47.696;9.140;2023-11-21T14:51:45;0.50;;;0.50;;
60847;SDS011;46681;47.696;9.140;2023-11-21T14:54:42;0.77;;;0.77;;
60847;SDS011;46681;47.696;9.140;2023-11-21T14:57:11;3.17;;;0.63;;
60847;SDS011;46681;47.696;9.140;2023-11-21T14:59:49;1.93;;;0.67;;
60847;SDS011;46681;47.696;9.140;2023-11-21T15:02:17;0.60;;;0.60;;
60847;SDS011;46681;47.696;9.140;2023-11-21T15:04:55;1.47;;;0.60;;
60847;SDS011;46681;47.696;9.140;2023-11-21T15:07:27;0.50;;;0.50;;
60847;SDS011;46681;47.696;9.140;2023-11-21T15:09:54;0.60;;;0.60;;
60847;SDS011;46681;47.696;9.140;2023-11-21T15:12:22;0.57;;;0.57;;
60847;SDS011;46681;47.696;9.140;2023-11-21T15:15:02;0.87;;;0.70;;
60847;SDS011;46681;47.696;9.140;2023-11-21T15:17:44;0.87;;;0.80;;
60847;SDS011;46681;47.696;9.140;2023-11-21T15:20:22;0.90;;;0.67;;
60847;SDS011;46681;47.696;9.140;2023-11-21T15:22:47;0.73;;;0.73;;
60847;SDS011;46681;47.696;9.140;2023-11-21T15:25:14;0.60;;;0.60;;